createdAt,value
2023-03-20T00:01:21.518Z,49.97
2023-03-20T00:06:27.315Z,49.86
2023-03-20T00:11:31.433Z,50.20
2023-03-20T00:16:36.608Z,50.35
2023-03-20T00:21:43.610Z,50.18
2023-03-20T00:26:46.679Z,50.44
2023-03-20T00:31:57.591Z,50.12
2023-03-20T00:37:03.820Z,50.32
2023-03-20T00:42:07.321Z,50.49
2023-03-20T00:47:19.715Z,50.39
2023-03-20T00:52:22.878Z,50.57
2023-03-20T00:57:36.241Z,49.89
2023-03-20T01:02:38.006Z,50.25
2023-03-20T01:07:44.578Z,50.64
2023-03-20T01:12:49.888Z,50.92
2023-03-20T01:17:53.071Z,50.53
2023-03-20T01:22:57.193Z,50.33
2023-03-20T01:27:58.785Z,50.26
2023-03-20T01:33:23.972Z,50.27
2023-03-20T01:38:29.357Z,50.71
2023-03-20T01:43:35.904Z,50.57
2023-03-20T01:48:49.748Z,50.73
2023-03-20T01:54:07.184Z,50.65
2023-03-20T01:59:17.263Z,50.89
2023-03-20T02:04:28.465Z,50.67
2023-03-20T02:09:37.416Z,51.08
2023-03-20T02:14:45.747Z,50.62
2023-03-20T02:20:21.683Z,50.61
2023-03-20T02:25:58.750Z,50.88
2023-03-20T02:31:14.926Z,51.32
2023-03-20T02:36:33.920Z,51.12
2023-03-20T02:41:43.807Z,51.42
2023-03-20T02:47:01.284Z,51.28
2023-03-20T02:52:27.538Z,51.52
2023-03-20T02:57:56.001Z,51.84
2023-03-20T03:03:06.464Z,52.32
2023-03-20T03:08:13.829Z,51.89
2023-03-20T03:13:27.057Z,52.43
2023-03-20T03:18:30.543Z,52.19
2023-03-20T03:23:40.116Z,52.30
2023-03-20T03:28:48.387Z,52.51
2023-03-20T03:33:55.451Z,52.77
2023-03-20T03:39:07.364Z,52.70
2023-03-20T03:44:27.026Z,52.68
2023-03-20T03:49:42.787Z,53.04
2023-03-20T03:54:46.829Z,53.37
2023-03-20T04:00:06.768Z,53.22
2023-03-20T04:05:17.343Z,53.28
2023-03-20T04:10:21.584Z,53.62
2023-03-20T04:15:32.632Z,53.44
2023-03-20T04:20:34.352Z,53.67
2023-03-20T04:25:39.439Z,53.75
2023-03-20T04:30:41.100Z,53.97
2023-03-20T04:36:20.853Z,54.07
2023-03-20T04:41:26.639Z,53.90
2023-03-20T04:46:31.723Z,54.04
2023-03-20T04:51:39.461Z,53.92
2023-03-20T04:56:41.280Z,54.03
2023-03-20T05:01:56.907Z,54.00
2023-03-20T05:06:58.679Z,53.74
2023-03-20T05:12:09.616Z,53.64
2023-03-20T05:17:30.152Z,54.03
2023-03-20T05:22:53.282Z,53.77
2023-03-20T05:28:23.390Z,53.74
2023-03-20T05:33:45.162Z,53.93
2023-03-20T05:39:01.036Z,53.74
2023-03-20T05:44:27.929Z,54.00
2023-03-20T05:49:49.724Z,53.63
2023-03-20T05:55:12.053Z,53.89
2023-03-20T06:00:29.592Z,54.08
2023-03-20T06:05:50.585Z,54.13
2023-03-20T06:10:53.779Z,54.06
2023-03-20T06:15:57.768Z,54.24
2023-03-20T06:20:59.490Z,54.18
2023-03-20T06:26:03.969Z,54.24
2023-03-20T06:31:18.093Z,54.42
2023-03-20T06:36:20.624Z,54.31
2023-03-20T06:41:34.389Z,54.47
2023-03-20T06:46:40.478Z,54.05
2023-03-20T06:51:46.448Z,54.56
2023-03-20T06:56:49.924Z,54.54
2023-03-20T07:01:52.703Z,54.38
2023-03-20T07:06:57.285Z,54.56
2023-03-20T07:12:00.058Z,54.40
2023-03-20T07:17:02.149Z,55.00
2023-03-20T07:22:08.207Z,54.81
2023-03-20T07:27:14.666Z,54.58
2023-03-20T07:32:17.040Z,54.94
2023-03-20T07:37:24.120Z,54.65
2023-03-20T07:42:36.981Z,54.59
2023-03-20T07:48:03.035Z,54.57
2023-03-20T07:53:12.199Z,54.74
2023-03-20T07:58:25.755Z,54.78
2023-03-20T08:03:29.899Z,54.79
2023-03-20T08:08:31.537Z,54.75
2023-03-20T08:13:35.728Z,54.82
2023-03-20T08:18:38.908Z,55.01
2023-03-20T08:23:40.491Z,54.83
2023-03-20T08:28:47.987Z,54.94
2023-03-20T08:33:52.839Z,55.12
2023-03-20T08:39:04.107Z,55.12
2023-03-20T08:44:08.226Z,55.03
2023-03-20T08:49:18.402Z,55.05
2023-03-20T08:54:24.605Z,55.14
2023-03-20T08:59:34.530Z,55.53
2023-03-20T09:04:36.573Z,55.71
2023-03-20T09:09:48.521Z,55.21
2023-03-20T09:14:50.085Z,55.48
2023-03-20T09:19:51.940Z,55.13
2023-03-20T09:24:53.493Z,54.96
2023-03-20T09:29:57.324Z,54.68
2023-03-20T09:35:03.377Z,54.72
2023-03-20T09:40:07.972Z,54.67
2023-03-20T09:45:38.668Z,54.65
2023-03-20T09:50:54.507Z,54.42
2023-03-20T09:55:57.098Z,54.00
2023-03-20T10:01:01.013Z,53.86
2023-03-20T10:06:16.816Z,53.99
2023-03-20T10:11:36.506Z,53.98
2023-03-20T10:16:40.404Z,53.61
2023-03-20T10:21:46.126Z,53.97
2023-03-20T10:26:55.162Z,53.70
2023-03-20T10:32:12.147Z,53.54
2023-03-20T10:37:31.606Z,53.47
2023-03-20T10:42:41.147Z,53.02
2023-03-20T10:47:47.468Z,53.00
2023-03-20T10:52:50.983Z,52.63
2023-03-20T10:58:08.774Z,52.50
2023-03-20T11:03:25.241Z,52.30
2023-03-20T11:08:35.465Z,52.09
2023-03-20T11:13:44.613Z,51.53
2023-03-20T11:18:54.938Z,51.29
2023-03-20T11:23:57.466Z,51.02
2023-03-20T11:28:59.847Z,50.69
2023-03-20T11:34:18.729Z,50.56
2023-03-20T11:39:29.509Z,50.08
2023-03-20T11:44:36.601Z,49.56
2023-03-20T11:49:56.827Z,49.63
2023-03-20T11:55:12.082Z,49.50
2023-03-20T12:00:21.330Z,49.64
2023-03-20T12:05:42.186Z,49.45
2023-03-20T12:10:49.204Z,49.24
2023-03-20T12:15:59.336Z,49.41
2023-03-20T12:21:19.652Z,49.33
2023-03-20T12:26:30.421Z,49.00
2023-03-20T12:31:45.684Z,48.99
2023-03-20T12:36:57.524Z,49.01
2023-03-20T12:42:04.139Z,48.94
2023-03-20T12:47:43.622Z,48.73
2023-03-20T12:53:17.068Z,48.72
2023-03-20T12:58:37.076Z,48.55
2023-03-20T13:03:48.857Z,48.18
2023-03-20T13:08:56.977Z,48.17
2023-03-20T13:14:12.578Z,47.96
2023-03-20T13:19:36.855Z,47.76
2023-03-20T13:24:48.224Z,47.61
2023-03-20T13:30:08.542Z,47.67
2023-03-20T13:35:35.998Z,47.66
2023-03-20T13:40:45.421Z,47.62
2023-03-20T13:45:59.276Z,47.38
2023-03-20T13:51:35.034Z,47.17
2023-03-20T13:56:58.669Z,47.01
2023-03-20T14:02:23.263Z,46.92
2023-03-20T14:07:39.069Z,46.93
2023-03-20T14:12:40.662Z,46.69
2023-03-20T14:17:44.590Z,46.91
2023-03-20T14:22:50.168Z,46.67
2023-03-20T14:28:09.801Z,46.74
2023-03-20T14:33:26.840Z,46.41
2023-03-20T14:38:54.652Z,46.46
2023-03-20T14:44:36.548Z,46.45
2023-03-20T14:50:07.098Z,46.60
2023-03-20T14:55:30.397Z,46.78
2023-03-20T15:00:45.872Z,46.69
2023-03-20T15:05:49.683Z,46.68
2023-03-20T15:10:57.238Z,46.57
2023-03-20T15:16:09.794Z,46.73
2023-03-20T15:21:19.981Z,46.71
2023-03-20T15:26:25.180Z,46.81
2023-03-20T15:31:30.420Z,46.76
2023-03-20T15:36:36.994Z,46.67
2023-03-20T15:41:39.134Z,46.72
2023-03-20T15:47:01.313Z,46.85
2023-03-20T15:52:17.040Z,46.71
2023-03-20T15:57:31.893Z,47.01
2023-03-20T16:02:36.094Z,46.87
2023-03-20T16:07:40.175Z,46.90
2023-03-20T16:12:49.756Z,46.99
2023-03-20T16:18:01.075Z,46.85
2023-03-20T16:23:07.852Z,46.93
2023-03-20T16:28:13.646Z,46.93
2023-03-20T16:33:17.566Z,46.99
2023-03-20T16:38:34.527Z,46.88
2023-03-20T16:43:43.326Z,46.74
2023-03-20T16:48:44.810Z,46.51
2023-03-20T16:53:48.907Z,46.46
2023-03-20T16:58:50.709Z,46.53
2023-03-20T17:03:58.242Z,46.70
2023-03-20T17:09:16.170Z,46.53
2023-03-20T17:14:17.751Z,46.58
2023-03-20T17:19:20.447Z,46.62
2023-03-20T17:24:27.212Z,46.63
2023-03-20T17:29:28.706Z,46.46
2023-03-20T17:34:32.752Z,46.55
2023-03-20T17:39:34.336Z,46.58
2023-03-20T17:44:35.848Z,46.70
2023-03-20T17:49:39.388Z,46.84
2023-03-20T17:54:40.987Z,46.76
2023-03-20T17:59:42.467Z,46.90
2023-03-20T18:04:47.616Z,46.82
2023-03-20T18:09:49.564Z,46.74
2023-03-20T18:14:51.128Z,46.90
2023-03-20T18:20:04.986Z,46.96
2023-03-20T18:25:06.849Z,47.04
2023-03-20T18:30:22.472Z,47.08
2023-03-20T18:35:24.059Z,47.23
2023-03-20T18:40:33.958Z,47.24
2023-03-20T18:45:35.900Z,47.29
2023-03-20T18:50:43.393Z,47.37
2023-03-20T18:55:45.341Z,47.46
2023-03-20T19:00:50.205Z,47.48
2023-03-20T19:05:57.510Z,47.53
2023-03-20T19:10:59.313Z,47.58
2023-03-20T19:16:03.503Z,47.62
2023-03-20T19:21:07.732Z,47.50
2023-03-20T19:26:16.391Z,47.36
2023-03-20T19:31:24.204Z,47.59
2023-03-20T19:36:34.296Z,47.75
2023-03-20T19:41:36.008Z,47.91
2023-03-20T19:46:42.312Z,48.02
2023-03-20T19:51:47.210Z,48.05
2023-03-20T19:56:48.881Z,48.14
2023-03-20T20:01:56.775Z,48.00
2023-03-20T20:07:36.260Z,48.30
2023-03-20T20:12:20.544Z,48.04
2023-03-20T20:17:29.633Z,48.19
2023-03-20T20:22:31.677Z,48.02
2023-03-20T20:27:34.879Z,47.92
2023-03-20T20:32:41.181Z,47.85
2023-03-20T20:43:34.841Z,48.03
2023-03-20T20:48:37.637Z,47.98
2023-03-20T20:53:39.159Z,48.10
2023-03-20T20:58:40.753Z,48.18
2023-03-20T21:03:42.402Z,48.18
2023-03-20T21:08:44.223Z,48.55
2023-03-20T21:13:45.922Z,48.60
2023-03-20T21:18:49.105Z,48.69
2023-03-20T21:23:51.254Z,48.90
2023-03-20T21:28:56.625Z,49.18
2023-03-20T21:34:00.640Z,48.88
2023-03-20T21:39:09.255Z,48.96
2023-03-20T21:44:18.078Z,49.29
2023-03-20T21:50:17.601Z,49.13
2023-03-20T21:55:14.948Z,49.15
2023-03-20T22:06:02.476Z,49.31
2023-03-20T22:17:10.091Z,49.44
2023-03-20T22:22:20.715Z,49.56
2023-03-20T22:38:29.265Z,49.36
2023-03-20T22:48:35.561Z,49.80
2023-03-20T22:53:37.328Z,49.95
2023-03-20T22:58:40.348Z,49.83
2023-03-20T23:03:42.508Z,49.71
2023-03-20T23:08:50.724Z,49.97
2023-03-20T23:13:56.496Z,49.67
2023-03-20T23:19:00.589Z,49.57
2023-03-20T23:24:02.222Z,49.63
2023-03-20T23:29:05.984Z,49.52
2023-03-20T23:34:13.513Z,49.44
2023-03-20T23:39:15.324Z,49.65
2023-03-20T23:44:19.562Z,49.68
2023-03-20T23:49:21.543Z,49.53
2023-03-20T23:54:23.501Z,49.77
2023-03-20T23:59:32.083Z,49.54
